createdAt,value
2022-09-29T00:00:11.480Z,0
2022-09-29T00:01:11.480Z,0
2022-09-29T00:02:11.587Z,0
2022-09-29T00:03:11.579Z,0
2022-09-29T00:04:11.491Z,0
2022-09-29T00:05:11.486Z,0
2022-09-29T00:06:11.490Z,0
2022-09-29T00:07:11.494Z,0
2022-09-29T00:08:11.497Z,0
2022-09-29T00:09:11.611Z,0
2022-09-29T00:10:11.486Z,0
2022-09-29T00:11:11.485Z,0
2022-09-29T00:12:11.484Z,0
2022-09-29T00:13:11.496Z,0
2022-09-29T00:14:11.521Z,0
2022-09-29T00:15:11.490Z,0
2022-09-29T00:19:11.499Z,0
2022-09-29T00:20:11.490Z,0
2022-09-29T00:21:11.493Z,0
2022-09-29T00:22:11.493Z,0
2022-09-29T00:23:11.514Z,0
2022-09-29T00:24:11.628Z,0
2022-09-29T00:25:11.494Z,0
2022-09-29T00:26:11.496Z,0
2022-09-29T00:27:11.489Z,0
2022-09-29T00:28:11.500Z,0
2022-09-29T00:29:11.488Z,0
2022-09-29T00:30:11.478Z,0
2022-09-29T00:31:11.558Z,0
2022-09-29T00:32:11.487Z,0
2022-09-29T00:33:11.498Z,0
2022-09-29T00:34:11.569Z,0
2022-09-29T00:35:11.501Z,0
2022-09-29T00:36:11.492Z,0
2022-09-29T00:37:11.493Z,0
2022-09-29T00:38:11.692Z,0
2022-09-29T00:39:11.485Z,0
2022-09-29T00:40:11.497Z,0
2022-09-29T00:41:11.502Z,0
2022-09-29T00:42:11.492Z,0
2022-09-29T00:43:11.496Z,0
2022-09-29T00:44:11.534Z,0
2022-09-29T00:45:11.483Z,0
2022-09-29T00:46:11.517Z,0
2022-09-29T00:47:11.479Z,0
2022-09-29T00:48:11.506Z,0
2022-09-29T00:49:11.485Z,0
2022-09-29T00:50:11.477Z,0
2022-09-29T00:51:11.485Z,0
2022-09-29T00:52:11.482Z,0
2022-09-29T00:53:11.515Z,0
2022-09-29T00:54:11.524Z,0
2022-09-29T00:55:11.482Z,0
2022-09-29T00:56:11.477Z,0
2022-09-29T00:57:11.484Z,0
2022-09-29T00:58:11.484Z,0
2022-09-29T00:59:11.484Z,0
2022-09-29T01:00:11.484Z,0
2022-09-29T01:01:11.616Z,0
2022-09-29T01:02:11.528Z,0
2022-09-29T01:03:11.492Z,0
2022-09-29T01:04:11.626Z,0
2022-09-29T01:05:11.484Z,0
2022-09-29T01:06:11.512Z,0
2022-09-29T01:07:11.494Z,0
2022-09-29T01:08:11.516Z,0
2022-09-29T01:09:11.503Z,0
2022-09-29T01:10:11.491Z,0
2022-09-29T01:11:11.499Z,0
2022-09-29T01:12:11.482Z,0
2022-09-29T01:13:11.501Z,0
2022-09-29T01:14:11.603Z,0
2022-09-29T01:15:11.497Z,0
2022-09-29T01:16:11.569Z,0
2022-09-29T01:17:11.496Z,0
2022-09-29T01:18:11.499Z,0
2022-09-29T01:19:11.509Z,0
2022-09-29T01:20:11.492Z,0
2022-09-29T01:21:11.494Z,0
2022-09-29T01:22:11.496Z,0
2022-09-29T01:23:11.587Z,0
2022-09-29T01:24:11.582Z,0
2022-09-29T01:25:11.484Z,0
2022-09-29T01:26:11.495Z,0
2022-09-29T01:27:11.533Z,0
2022-09-29T01:28:11.498Z,0
2022-09-29T01:29:11.497Z,0
2022-09-29T01:30:11.478Z,0
2022-09-29T01:31:11.531Z,0
2022-09-29T01:32:11.494Z,0
2022-09-29T01:33:11.495Z,0
2022-09-29T01:34:11.553Z,0
2022-09-29T01:35:11.493Z,0
2022-09-29T01:36:11.497Z,0
2022-09-29T01:37:11.487Z,0
2022-09-29T01:38:11.695Z,0
2022-09-29T01:39:11.485Z,0
2022-09-29T01:40:11.500Z,0
2022-09-29T01:41:11.491Z,0
2022-09-29T01:42:11.531Z,0
2022-09-29T01:43:11.492Z,0
2022-09-29T01:44:11.496Z,0
2022-09-29T01:45:11.494Z,0
2022-09-29T01:46:11.521Z,0
2022-09-29T01:47:11.496Z,0
2022-09-29T01:48:11.501Z,0
2022-09-29T01:49:11.497Z,0
2022-09-29T01:50:11.487Z,0
2022-09-29T01:51:11.498Z,0
2022-09-29T01:52:11.495Z,0
2022-09-29T01:53:11.522Z,0
2022-09-29T01:54:11.571Z,0
2022-09-29T01:55:11.491Z,0
2022-09-29T01:56:11.495Z,0
2022-09-29T01:57:11.482Z,0
2022-09-29T01:58:11.503Z,0
2022-09-29T01:59:11.493Z,0
2022-09-29T02:00:11.485Z,0
2022-09-29T02:01:11.579Z,0
2022-09-29T02:02:11.536Z,0
2022-09-29T02:03:11.502Z,0
2022-09-29T02:04:11.486Z,0
2022-09-29T02:05:11.478Z,0
2022-09-29T02:06:11.488Z,0
2022-09-29T02:07:11.484Z,0
2022-09-29T02:08:11.514Z,0
2022-09-29T02:09:11.490Z,0
2022-09-29T02:10:11.492Z,0
2022-09-29T02:11:11.477Z,0
2022-09-29T02:12:11.478Z,0
2022-09-29T02:13:11.491Z,0
2022-09-29T02:14:11.546Z,0
2022-09-29T02:15:11.485Z,0
2022-09-29T02:16:11.573Z,0
2022-09-29T02:17:11.494Z,0
2022-09-29T02:18:11.493Z,0
2022-09-29T02:19:11.488Z,0
2022-09-29T02:20:11.491Z,0
2022-09-29T02:27:11.526Z,0
2022-09-29T02:28:11.503Z,0
2022-09-29T02:29:11.492Z,0
2022-09-29T02:30:11.488Z,0
2022-09-29T02:31:11.507Z,0
2022-09-29T02:32:11.496Z,0
2022-09-29T02:33:11.508Z,0
2022-09-29T02:34:11.632Z,0
2022-09-29T02:35:11.499Z,0
2022-09-29T02:36:11.532Z,0
2022-09-29T02:37:11.496Z,0
2022-09-29T02:38:11.514Z,0
2022-09-29T02:39:11.516Z,0
2022-09-29T02:40:11.498Z,0
2022-09-29T02:41:11.493Z,0
2022-09-29T02:42:11.497Z,0
2022-09-29T02:43:11.507Z,0
2022-09-29T02:44:11.611Z,0
2022-09-29T02:45:11.493Z,0
2022-09-29T02:46:11.537Z,0
2022-09-29T02:47:11.492Z,0
2022-09-29T02:48:11.510Z,0
2022-09-29T02:49:11.499Z,0
2022-09-29T02:50:11.504Z,0
2022-09-29T02:51:11.480Z,0
2022-09-29T02:52:11.498Z,0
2022-09-29T02:53:11.507Z,0
2022-09-29T02:54:11.552Z,0
2022-09-29T02:55:11.497Z,0
2022-09-29T02:56:11.495Z,0
2022-09-29T02:57:11.501Z,0
2022-09-29T02:58:11.497Z,0
2022-09-29T02:59:11.503Z,0
2022-09-29T03:00:11.512Z,0
2022-09-29T03:01:11.539Z,0
2022-09-29T03:02:11.497Z,0
2022-09-29T03:03:11.524Z,0
2022-09-29T03:04:11.499Z,0
2022-09-29T03:05:11.499Z,0
2022-09-29T03:06:11.489Z,0
2022-09-29T03:07:11.491Z,0
2022-09-29T03:08:11.502Z,0
2022-09-29T03:09:11.510Z,0
2022-09-29T03:10:11.491Z,0
2022-09-29T03:11:11.494Z,0
2022-09-29T03:12:11.480Z,0
2022-09-29T03:13:11.494Z,0
2022-09-29T03:14:11.519Z,0
2022-09-29T03:15:11.486Z,0
2022-09-29T03:16:11.529Z,0
2022-09-29T03:17:11.520Z,0
2022-09-29T03:18:11.489Z,0
2022-09-29T03:19:11.483Z,0
2022-09-29T03:20:11.502Z,0
2022-09-29T03:21:11.484Z,0
2022-09-29T03:22:11.486Z,0
2022-09-29T03:23:11.492Z,0
2022-09-29T03:24:11.514Z,0
2022-09-29T03:25:11.484Z,0
2022-09-29T03:26:11.488Z,0
2022-09-29T03:27:11.496Z,0
2022-09-29T03:28:11.495Z,0
2022-09-29T03:29:11.494Z,0
2022-09-29T03:30:11.489Z,0
2022-09-29T03:31:11.512Z,0
2022-09-29T03:32:11.499Z,0
2022-09-29T03:33:11.512Z,0
2022-09-29T03:34:11.496Z,0
2022-09-29T03:35:11.502Z,0
2022-09-29T03:36:11.488Z,0
2022-09-29T03:37:11.492Z,0
2022-09-29T03:38:11.504Z,0
2022-09-29T03:39:11.507Z,0
2022-09-29T03:40:11.495Z,0
2022-09-29T03:41:11.494Z,0
2022-09-29T03:42:11.500Z,0
2022-09-29T03:43:11.498Z,0
2022-09-29T03:44:11.490Z,0
2022-09-29T03:45:11.503Z,0
2022-09-29T03:46:11.557Z,0
2022-09-29T03:47:11.492Z,0
2022-09-29T03:48:11.507Z,0
2022-09-29T03:49:11.497Z,0
2022-09-29T03:50:11.501Z,0
2022-09-29T03:51:11.499Z,0
2022-09-29T03:52:11.500Z,0
2022-09-29T03:53:11.581Z,0
2022-09-29T03:54:11.506Z,0
2022-09-29T03:55:11.492Z,0
2022-09-29T03:56:11.485Z,0
2022-09-29T03:57:11.492Z,0
2022-09-29T03:58:11.509Z,0
2022-09-29T03:59:11.557Z,0
2022-09-29T04:00:11.500Z,0
2022-09-29T04:01:11.635Z,0
2022-09-29T04:02:11.535Z,0
2022-09-29T04:03:11.508Z,0
2022-09-29T04:04:11.500Z,0
2022-09-29T04:05:11.497Z,0
2022-09-29T04:06:11.489Z,0
2022-09-29T04:07:11.488Z,0
2022-09-29T04:08:11.498Z,0
2022-09-29T04:09:11.603Z,0
2022-09-29T04:10:11.537Z,0
2022-09-29T04:11:11.497Z,0
2022-09-29T04:12:11.490Z,0
2022-09-29T04:13:11.510Z,0
2022-09-29T04:14:11.493Z,0
2022-09-29T04:15:11.506Z,0
2022-09-29T04:16:11.547Z,0
2022-09-29T04:17:11.494Z,0
2022-09-29T04:18:11.508Z,0
2022-09-29T04:19:11.544Z,0
2022-09-29T04:20:11.483Z,0
2022-09-29T04:21:11.498Z,0
2022-09-29T04:22:11.499Z,0
2022-09-29T04:23:11.492Z,0
2022-09-29T04:24:11.512Z,0
2022-09-29T04:25:11.484Z,0
2022-09-29T04:26:11.481Z,0
2022-09-29T04:27:11.488Z,0
2022-09-29T04:28:11.488Z,0
2022-09-29T04:29:11.549Z,0
2022-09-29T04:30:11.487Z,0
2022-09-29T04:31:11.545Z,0
2022-09-29T04:32:11.484Z,0
2022-09-29T04:33:11.544Z,0
2022-09-29T04:34:11.487Z,0
2022-09-29T04:35:11.480Z,0
2022-09-29T04:36:11.488Z,0
2022-09-29T04:37:11.503Z,0
2022-09-29T04:38:11.493Z,0
2022-09-29T04:39:11.649Z,0
2022-09-29T04:40:11.496Z,0
2022-09-29T04:41:11.496Z,0
2022-09-29T04:42:11.494Z,0
2022-09-29T04:43:11.526Z,0
2022-09-29T04:44:11.530Z,0
2022-09-29T04:45:11.492Z,0
2022-09-29T04:46:11.587Z,0
2022-09-29T04:47:11.486Z,0
2022-09-29T04:48:11.507Z,0
2022-09-29T04:49:11.537Z,0
2022-09-29T04:50:11.488Z,0.01
2022-09-29T04:51:11.504Z,0.01
2022-09-29T04:52:11.488Z,0.01
2022-09-29T04:53:11.504Z,0.01
2022-09-29T04:54:11.510Z,0.01
2022-09-29T04:55:11.498Z,0.01
2022-09-29T04:56:11.492Z,0.02
2022-09-29T04:57:11.498Z,0.02
2022-09-29T04:58:11.505Z,0.02
2022-09-29T04:59:11.652Z,0.02
2022-09-29T05:00:11.496Z,0.03
2022-09-29T05:01:11.561Z,0.03
2022-09-29T05:02:11.548Z,0.03
2022-09-29T05:03:11.506Z,0.04
2022-09-29T05:04:11.499Z,0.04
2022-09-29T05:05:11.500Z,0.04
2022-09-29T05:06:11.498Z,0.05
2022-09-29T05:07:11.498Z,0.06
2022-09-29T05:08:11.503Z,0.06
2022-09-29T05:09:11.556Z,0.06
2022-09-29T05:10:11.486Z,0.07
2022-09-29T05:11:11.535Z,0.08
2022-09-29T05:12:11.491Z,0.08
2022-09-29T05:13:11.504Z,0.09
2022-09-29T05:14:11.509Z,0.09
2022-09-29T05:15:11.504Z,0.1
2022-09-29T05:16:11.543Z,0.1
2022-09-29T05:17:11.498Z,0.11
2022-09-29T05:18:11.499Z,0.12
2022-09-29T05:19:11.570Z,0.12
2022-09-29T05:20:11.495Z,0.13
2022-09-29T05:21:26.648Z,0.13
2022-09-29T05:22:11.506Z,0.13
2022-09-29T05:23:11.508Z,0.14
2022-09-29T05:24:11.516Z,0.14
2022-09-29T05:25:11.508Z,0.15
2022-09-29T05:26:11.505Z,0.16
2022-09-29T05:27:11.498Z,0.17
2022-09-29T05:28:11.506Z,0.18
2022-09-29T05:29:11.549Z,0.19
2022-09-29T05:30:11.625Z,0.2
2022-09-29T05:31:11.522Z,0.21
2022-09-29T05:32:11.485Z,0.22
2022-09-29T05:33:11.493Z,0.22
2022-09-29T05:34:11.484Z,0.23
2022-09-29T05:35:11.480Z,0.24
2022-09-29T05:36:11.485Z,0.25
2022-09-29T05:37:11.485Z,0.25
2022-09-29T05:38:11.490Z,0.27
2022-09-29T05:39:11.564Z,0.27
2022-09-29T05:40:11.491Z,0.28
2022-09-29T05:41:11.480Z,0.28
2022-09-29T05:42:11.484Z,0.29
2022-09-29T05:43:11.492Z,0.3
2022-09-29T05:44:11.485Z,0.35
2022-09-29T05:45:11.480Z,0.46
2022-09-29T05:46:11.530Z,0.71
2022-09-29T05:47:11.480Z,0.48
2022-09-29T05:48:11.493Z,0.33
2022-09-29T05:49:11.484Z,0.36
2022-09-29T05:50:11.485Z,0.37
2022-09-29T05:51:11.500Z,0.32
2022-09-29T05:52:11.497Z,0.29
2022-09-29T05:53:11.511Z,0.29
2022-09-29T05:54:11.523Z,0.29
2022-09-29T05:55:11.493Z,0.31
2022-09-29T05:56:11.494Z,0.37
2022-09-29T05:57:11.497Z,0.52
2022-09-29T05:58:11.508Z,0.48
2022-09-29T05:59:11.655Z,0.49
2022-09-29T06:00:11.497Z,0.54
2022-09-29T06:01:11.566Z,0.54
2022-09-29T06:02:11.563Z,0.48
2022-09-29T06:03:11.504Z,0.49
2022-09-29T06:04:11.492Z,0.44
2022-09-29T06:05:11.491Z,0.43
2022-09-29T06:06:11.504Z,0.48
2022-09-29T06:07:11.492Z,0.6
2022-09-29T06:08:11.501Z,0.66
2022-09-29T06:09:11.532Z,0.66
2022-09-29T06:10:11.505Z,0.88
2022-09-29T06:11:11.574Z,1.07
2022-09-29T06:12:11.487Z,1.33
2022-09-29T06:13:11.506Z,1.75
2022-09-29T06:14:11.500Z,1.86
2022-09-29T06:15:11.497Z,1.56
2022-09-29T06:16:11.607Z,1.49
2022-09-29T06:17:11.493Z,1.13
2022-09-29T06:18:11.497Z,0.87
2022-09-29T06:19:11.604Z,1.08
2022-09-29T06:20:11.508Z,1.86
2022-09-29T06:21:11.532Z,1.93
2022-09-29T06:22:11.494Z,2.29
2022-09-29T06:23:11.505Z,2.42
2022-09-29T06:24:11.576Z,2.38
2022-09-29T06:25:11.498Z,2.62
2022-09-29T06:26:11.497Z,2.71
2022-09-29T06:27:11.498Z,2.65
2022-09-29T06:28:11.514Z,2.55
2022-09-29T06:29:11.494Z,2.25
2022-09-29T06:30:11.503Z,2.65
2022-09-29T06:31:11.500Z,2.72
2022-09-29T06:32:11.611Z,2.99
2022-09-29T06:33:11.509Z,2.49
2022-09-29T06:34:11.499Z,2.83
2022-09-29T06:35:11.501Z,2.95
2022-09-29T06:36:11.501Z,3.1
2022-09-29T06:37:11.495Z,3.18
2022-09-29T06:38:11.503Z,2.9
2022-09-29T06:39:11.683Z,3.01
2022-09-29T06:40:11.557Z,1.9
2022-09-29T06:41:11.497Z,2.29
2022-09-29T06:42:11.503Z,3.02
2022-09-29T06:43:11.516Z,2.97
2022-09-29T06:44:11.489Z,3.42
2022-09-29T06:45:11.486Z,2.98
2022-09-29T06:46:11.547Z,3.08
2022-09-29T06:47:11.485Z,3.03
2022-09-29T06:48:11.493Z,1.83
2022-09-29T06:49:11.637Z,3.01
2022-09-29T06:50:17.170Z,3.46
2022-09-29T06:51:11.484Z,2.26
2022-09-29T06:52:19.906Z,3.69
2022-09-29T06:53:11.496Z,3.84
2022-09-29T06:54:12.308Z,3.91
2022-09-29T06:55:11.480Z,3.75
2022-09-29T06:56:11.485Z,2.83
2022-09-29T06:57:11.483Z,2.85
2022-09-29T06:58:11.491Z,2.24
2022-09-29T06:59:11.499Z,3.63
2022-09-29T07:00:11.491Z,3.52
2022-09-29T07:01:11.588Z,2.78
2022-09-29T07:02:11.594Z,3.34
2022-09-29T07:03:11.500Z,4.3
2022-09-29T07:04:11.502Z,3.96
2022-09-29T07:05:11.502Z,3.51
2022-09-29T07:06:20.055Z,4.41
2022-09-29T07:07:11.502Z,4.23
2022-09-29T07:08:11.508Z,3.95
2022-09-29T07:09:11.647Z,3.95
2022-09-29T07:10:11.494Z,3.86
2022-09-29T07:11:11.492Z,3.13
2022-09-29T07:12:11.500Z,2.15
2022-09-29T07:13:11.504Z,2.82
2022-09-29T07:14:11.533Z,2.93
2022-09-29T07:15:11.500Z,2.7
2022-09-29T07:16:11.545Z,2.93
2022-09-29T07:17:11.504Z,3.61
2022-09-29T07:18:11.503Z,4.48
2022-09-29T07:19:11.494Z,3.09
2022-09-29T07:20:11.615Z,3.82
2022-09-29T07:21:11.483Z,3.75
2022-09-29T07:22:11.481Z,4.02
2022-09-29T07:23:11.558Z,4.4
2022-09-29T07:24:11.516Z,3.75
2022-09-29T07:25:19.281Z,4.05
2022-09-29T07:26:11.495Z,3.5
2022-09-29T07:27:11.504Z,5.06
2022-09-29T07:28:11.504Z,5.16
2022-09-29T07:29:15.510Z,5.41
2022-09-29T07:30:11.492Z,4.92
2022-09-29T07:31:14.878Z,5.6
2022-09-29T07:32:20.007Z,5.59
2022-09-29T07:33:11.582Z,5.62
2022-09-29T07:34:11.499Z,5.59
2022-09-29T07:35:11.495Z,5.56
2022-09-29T07:36:11.492Z,5.54
2022-09-29T07:37:11.507Z,5.05
2022-09-29T07:38:11.501Z,4.49
2022-09-29T07:39:11.518Z,2.49
2022-09-29T07:40:11.489Z,1.58
2022-09-29T07:41:11.567Z,3.65
2022-09-29T07:42:11.510Z,2.63
2022-09-29T07:43:11.506Z,3.16
2022-09-29T07:44:11.695Z,3.19
2022-09-29T07:45:11.496Z,3.07
2022-09-29T07:46:11.613Z,1.47
2022-09-29T07:47:11.498Z,1.83
2022-09-29T07:48:11.498Z,2.1
2022-09-29T07:49:11.678Z,3.68
2022-09-29T07:50:11.502Z,2.58
2022-09-29T07:51:11.504Z,3.59
2022-09-29T07:52:12.151Z,3.59
2022-09-29T07:53:11.499Z,3.62
2022-09-29T07:54:11.570Z,3.66
2022-09-29T07:55:11.482Z,3.7
2022-09-29T07:56:11.579Z,3.74
2022-09-29T07:57:11.742Z,3.81
2022-09-29T07:58:11.503Z,3.89
2022-09-29T07:59:11.507Z,3.94
2022-09-29T08:00:11.494Z,3.96
2022-09-29T08:01:11.526Z,3.98
2022-09-29T08:02:11.598Z,3.99
2022-09-29T08:03:11.489Z,4.04
2022-09-29T08:04:11.643Z,4.05
2022-09-29T08:05:11.480Z,4.11
2022-09-29T08:06:11.487Z,4.18
2022-09-29T08:07:11.489Z,4.24
2022-09-29T08:08:11.489Z,4.28
2022-09-29T08:09:11.536Z,4.28
2022-09-29T08:10:17.370Z,4.38
2022-09-29T08:11:20.841Z,4.43
2022-09-29T08:12:11.500Z,4.5
2022-09-29T08:13:11.502Z,4.55
2022-09-29T08:14:11.501Z,4.6
2022-09-29T08:15:11.498Z,4.63
2022-09-29T08:17:42.144Z,4.66
2022-09-29T08:18:40.963Z,4.72
2022-09-29T08:19:40.959Z,4.81
2022-09-29T08:20:40.964Z,4.93
2022-09-29T08:21:40.960Z,5.07
2022-09-29T08:25:43.952Z,3.36
2022-09-29T08:26:43.499Z,2.43
2022-09-29T08:27:49.741Z,2.78
2022-09-29T08:28:40.950Z,1.22
2022-09-29T08:29:45.662Z,1.08
2022-09-29T08:30:41.379Z,1.12
2022-09-29T08:31:40.984Z,1.16
2022-09-29T08:32:40.948Z,1.14
2022-09-29T08:33:40.942Z,1.21
2022-09-29T08:34:40.943Z,1.28
2022-09-29T08:35:40.950Z,1.33
2022-09-29T08:36:40.936Z,1.44
2022-09-29T08:37:40.937Z,1.54
2022-09-29T08:38:40.935Z,1.59
2022-09-29T08:39:40.936Z,1.62
2022-09-29T08:40:41.027Z,1.72
2022-09-29T08:41:40.962Z,2.94
2022-09-29T08:42:47.439Z,1.62
2022-09-29T08:43:40.997Z,1.62
2022-09-29T08:44:41.648Z,2.77
2022-09-29T08:45:55.527Z,1.93
2022-09-29T08:46:40.972Z,1.39
2022-09-29T08:47:46.055Z,1.22
2022-09-29T08:48:53.786Z,1.22
2022-09-29T08:49:40.943Z,1.03
2022-09-29T08:50:41.789Z,0.98
2022-09-29T08:51:42.620Z,0.92
2022-09-29T08:52:51.596Z,0.9
2022-09-29T08:53:41.059Z,0.93
2022-09-29T08:54:42.984Z,0.94
2022-09-29T08:55:40.937Z,0.96
2022-09-29T08:56:40.976Z,0.97
2022-09-29T08:57:40.926Z,0.98
2022-09-29T08:58:40.940Z,1.13
2022-09-29T08:59:40.930Z,1.27
2022-09-29T09:00:41.635Z,1
2022-09-29T09:01:40.929Z,1.02
2022-09-29T09:02:40.949Z,1.06
2022-09-29T09:03:40.937Z,1.15
2022-09-29T09:04:40.945Z,1.15
2022-09-29T09:05:40.944Z,1.51
2022-09-29T09:06:41.009Z,1.16
2022-09-29T09:07:40.940Z,1.16
2022-09-29T09:08:41.020Z,5.68
2022-09-29T09:09:40.959Z,5.68
2022-09-29T09:10:40.943Z,5.7
2022-09-29T09:11:40.933Z,5.51
2022-09-29T09:12:40.922Z,1.09
2022-09-29T09:13:40.935Z,2.41
2022-09-29T09:14:40.933Z,2.33
2022-09-29T09:15:40.918Z,1.5
2022-09-29T09:16:41.010Z,2.32
2022-09-29T09:17:40.917Z,2.32
2022-09-29T09:18:40.947Z,2.32
2022-09-29T09:19:40.919Z,2.32
2022-09-29T09:20:40.923Z,6.59
2022-09-29T09:21:40.917Z,2.71
2022-09-29T09:22:40.915Z,3.47
2022-09-29T09:23:40.936Z,3.97
2022-09-29T09:24:40.920Z,6.93
2022-09-29T09:25:40.936Z,6.9
2022-09-29T09:26:41.001Z,7.22
2022-09-29T09:27:40.929Z,7.18
2022-09-29T09:28:41.044Z,7.2
2022-09-29T09:29:40.927Z,7.34
2022-09-29T09:30:40.996Z,7.51
2022-09-29T09:31:40.940Z,6.28
2022-09-29T09:32:40.930Z,7.18
2022-09-29T09:33:40.933Z,6.87
2022-09-29T09:34:44.400Z,7.26
2022-09-29T09:35:52.698Z,7.51
2022-09-29T09:36:40.936Z,7.41
2022-09-29T09:37:40.915Z,6.09
2022-09-29T09:38:40.935Z,7.92
2022-09-29T09:39:40.926Z,7.49
2022-09-29T09:40:40.925Z,7.14
2022-09-29T09:41:40.942Z,1.59
2022-09-29T09:42:40.930Z,6.51
2022-09-29T09:43:40.933Z,7.41
2022-09-29T09:44:40.923Z,7.35
2022-09-29T09:45:41.015Z,7.38
2022-09-29T09:46:40.923Z,7.51
2022-09-29T09:47:40.957Z,7.47
2022-09-29T09:48:40.935Z,7.38
2022-09-29T09:49:40.934Z,7.43
2022-09-29T09:50:40.926Z,7.58
2022-09-29T09:51:40.957Z,7.57
2022-09-29T09:52:40.923Z,7.57
2022-09-29T09:53:40.982Z,7.65
2022-09-29T09:54:40.936Z,7.53
2022-09-29T09:55:40.920Z,7.55
2022-09-29T09:56:40.944Z,7.56
2022-09-29T09:57:40.919Z,7.46
2022-09-29T09:58:40.957Z,7.46
2022-09-29T09:59:40.927Z,7.56
2022-09-29T10:00:40.921Z,1.81
2022-09-29T10:01:40.990Z,7.83
2022-09-29T10:02:41.001Z,7.78
2022-09-29T10:03:40.935Z,7.83
2022-09-29T10:04:40.927Z,7.95
2022-09-29T10:05:40.922Z,7.92
2022-09-29T10:06:40.921Z,7.86
2022-09-29T10:07:40.926Z,7.98
2022-09-29T10:08:40.930Z,7.98
2022-09-29T10:09:41.001Z,8.17
2022-09-29T10:10:47.755Z,6.84
2022-09-29T10:11:40.940Z,7.99
2022-09-29T10:12:40.911Z,7.99
2022-09-29T10:13:40.942Z,7.99
2022-09-29T10:14:40.928Z,7.92
2022-09-29T10:15:40.923Z,7.93
2022-09-29T10:16:40.983Z,7.91
2022-09-29T10:17:40.924Z,7.87
2022-09-29T10:18:40.937Z,7.82
2022-09-29T10:19:40.934Z,7.86
2022-09-29T10:20:40.929Z,7.66
2022-09-29T10:21:40.916Z,7.57
2022-09-29T10:22:40.928Z,7.51
2022-09-29T10:23:40.941Z,7.51
2022-09-29T10:24:40.921Z,7.51
2022-09-29T10:25:40.918Z,7.51
2022-09-29T10:26:40.961Z,7.45
2022-09-29T10:27:40.935Z,7.34
2022-09-29T10:28:40.933Z,7.44
2022-09-29T10:29:40.934Z,5.54
2022-09-29T10:30:40.980Z,6.81
2022-09-29T10:31:41.039Z,5.69
2022-09-29T10:32:40.933Z,6.31
2022-09-29T10:33:40.949Z,7.06
2022-09-29T10:34:40.921Z,7
2022-09-29T10:35:40.929Z,7.08
2022-09-29T10:36:40.929Z,7.12
2022-09-29T10:37:40.919Z,7.13
2022-09-29T10:38:40.942Z,7.03
2022-09-29T10:39:40.934Z,6.94
2022-09-29T10:40:40.922Z,5.9
2022-09-29T10:41:40.936Z,7.24
2022-09-29T10:42:40.931Z,7.2
2022-09-29T10:43:40.933Z,7.4
2022-09-29T10:44:40.937Z,5.76
2022-09-29T10:45:40.967Z,6.08
2022-09-29T10:46:40.925Z,7.2
2022-09-29T10:47:40.919Z,7.22
2022-09-29T10:48:40.936Z,7.13
2022-09-29T10:49:40.920Z,7.12
2022-09-29T10:50:40.932Z,7.05
2022-09-29T10:51:40.923Z,6.96
2022-09-29T10:52:40.926Z,6.96
2022-09-29T10:53:40.927Z,6.82
2022-09-29T10:54:40.928Z,6.93
2022-09-29T10:55:40.925Z,7.51
2022-09-29T10:56:40.948Z,3.09
2022-09-29T10:57:40.926Z,2.94
2022-09-29T10:58:53.151Z,3.59
2022-09-29T10:59:40.933Z,3.14
2022-09-29T11:00:40.921Z,6.13
2022-09-29T11:01:40.921Z,7.8
2022-09-29T11:02:40.952Z,7.3
2022-09-29T11:03:40.927Z,7.05
2022-09-29T11:04:40.999Z,6.93
2022-09-29T11:05:40.930Z,5.11
2022-09-29T11:06:44.110Z,6.44
2022-09-29T11:07:40.925Z,4.01
2022-09-29T11:08:40.931Z,4.01
2022-09-29T11:09:41.021Z,4.01
2022-09-29T11:10:40.925Z,6.22
2022-09-29T11:11:40.935Z,6.19
2022-09-29T11:12:40.946Z,6.19
2022-09-29T11:13:40.944Z,6.17
2022-09-29T11:14:40.921Z,6.25
2022-09-29T11:15:40.925Z,6.22
2022-09-29T11:16:40.954Z,5.95
2022-09-29T11:17:41.063Z,5.83
2022-09-29T11:18:40.934Z,5.65
2022-09-29T11:19:40.937Z,5.57
2022-09-29T11:20:40.931Z,5.83
2022-09-29T11:21:40.924Z,5.9
2022-09-29T11:22:40.923Z,5.92
2022-09-29T11:23:40.941Z,5.89
2022-09-29T11:24:40.928Z,5.47
2022-09-29T11:25:40.932Z,5.92
2022-09-29T11:26:43.314Z,5.96
2022-09-29T11:27:40.924Z,5.96
2022-09-29T11:28:40.928Z,6.04
2022-09-29T11:29:40.935Z,6.15
2022-09-29T11:30:40.968Z,6.31
2022-09-29T11:31:40.920Z,6.41
2022-09-29T11:32:40.909Z,6.5
2022-09-29T11:33:40.937Z,6.47
2022-09-29T11:34:40.932Z,6.41
2022-09-29T11:35:40.928Z,6.29
2022-09-29T11:36:40.920Z,6.27
2022-09-29T11:37:40.926Z,5.79
2022-09-29T11:38:40.923Z,5.98
2022-09-29T11:39:40.997Z,5.9
2022-09-29T11:40:40.928Z,5.93
2022-09-29T11:41:40.967Z,6.01
2022-09-29T11:42:40.921Z,6.19
2022-09-29T11:43:41.025Z,6.41
2022-09-29T11:44:40.920Z,6.41
2022-09-29T11:45:41.003Z,6.39
2022-09-29T11:46:40.928Z,6.37
2022-09-29T11:47:40.923Z,6.24
2022-09-29T11:48:40.929Z,6.08
2022-09-29T11:49:40.946Z,5.85
2022-09-29T11:50:40.927Z,6.01
2022-09-29T11:51:40.928Z,5.5
2022-09-29T11:52:40.923Z,3.88
2022-09-29T11:53:40.935Z,3.99
2022-09-29T11:54:40.925Z,4.02
2022-09-29T11:55:40.930Z,3.11
2022-09-29T11:56:40.939Z,2.28
2022-09-29T11:57:40.933Z,2.29
2022-09-29T11:58:40.931Z,2.31
2022-09-29T11:59:40.925Z,5.56
2022-09-29T12:00:40.921Z,4.01
2022-09-29T12:01:40.918Z,2.06
2022-09-29T12:02:41.123Z,2.03
2022-09-29T12:03:40.928Z,2.05
2022-09-29T12:04:40.920Z,2.02
2022-09-29T12:05:40.923Z,2.02
2022-09-29T12:06:40.921Z,2.03
2022-09-29T12:07:40.915Z,1.98
2022-09-29T12:08:41.017Z,1.98
2022-09-29T12:09:40.964Z,3.34
2022-09-29T12:10:40.929Z,2.09
2022-09-29T12:11:54.731Z,3.21
2022-09-29T12:12:41.008Z,8.63
2022-09-29T12:13:40.934Z,5.69
2022-09-29T12:14:41.409Z,5.69
2022-09-29T12:15:41.214Z,3.33
2022-09-29T12:16:40.988Z,7.06
2022-09-29T12:17:40.921Z,7.6
2022-09-29T12:18:40.927Z,7.37
2022-09-29T12:19:40.941Z,7.03
2022-09-29T12:20:40.924Z,7.31
2022-09-29T12:21:40.940Z,7.86
2022-09-29T12:22:44.263Z,7.54
2022-09-29T12:23:40.940Z,7.56
2022-09-29T12:24:40.929Z,5.24
2022-09-29T12:25:40.921Z,5.39
2022-09-29T12:26:40.940Z,6.86
2022-09-29T12:27:40.926Z,6.48
2022-09-29T12:28:40.926Z,3.35
2022-09-29T12:29:40.920Z,2.82
2022-09-29T12:30:40.962Z,2.48
2022-09-29T12:31:40.928Z,1.94
2022-09-29T12:32:40.923Z,2.36
2022-09-29T12:33:40.937Z,2.42
2022-09-29T12:34:40.922Z,4.05
2022-09-29T12:35:40.936Z,4.05
2022-09-29T12:36:40.920Z,4.49
2022-09-29T12:37:40.914Z,2.47
2022-09-29T12:38:40.945Z,2.15
2022-09-29T12:39:40.929Z,2.01
2022-09-29T12:40:40.939Z,2.1
2022-09-29T12:41:41.000Z,1.98
2022-09-29T12:42:40.920Z,1.89
2022-09-29T12:43:40.928Z,1.92
2022-09-29T12:44:40.921Z,1.96
2022-09-29T12:45:40.928Z,1.95
2022-09-29T12:46:40.924Z,1.99
2022-09-29T12:47:40.920Z,2.02
2022-09-29T12:48:40.931Z,2.11
2022-09-29T12:49:40.913Z,2.46
2022-09-29T12:50:40.923Z,2.41
2022-09-29T12:51:40.928Z,2.66
2022-09-29T12:52:40.924Z,2.88
2022-09-29T12:53:40.938Z,2.64
2022-09-29T12:54:40.925Z,2.2
2022-09-29T12:55:40.948Z,2.17
2022-09-29T12:56:41.004Z,2.08
2022-09-29T12:57:40.937Z,2.55
2022-09-29T12:58:40.973Z,1.43
2022-09-29T12:59:40.924Z,1.28
2022-09-29T13:00:40.916Z,1.23
2022-09-29T13:01:41.037Z,1.27
2022-09-29T13:02:40.944Z,1.43
2022-09-29T13:03:40.923Z,1.54
2022-09-29T13:04:40.937Z,1.65
2022-09-29T13:05:40.926Z,1.46
2022-09-29T13:06:40.929Z,1.39
2022-09-29T13:07:40.926Z,1.38
2022-09-29T13:08:41.007Z,1.38
2022-09-29T13:09:40.989Z,1.39
2022-09-29T13:10:40.922Z,1.46
2022-09-29T13:11:40.949Z,1.62
2022-09-29T13:12:40.922Z,1.78
2022-09-29T13:13:40.939Z,1.76
2022-09-29T13:14:41.051Z,3.45
2022-09-29T13:15:45.888Z,2.4
2022-09-29T13:16:40.929Z,2.39
2022-09-29T13:17:42.600Z,3.42
2022-09-29T13:18:48.960Z,1.89
2022-09-29T13:19:56.782Z,1.81
2022-09-29T13:20:40.926Z,1.81
2022-09-29T13:21:40.912Z,1.88
2022-09-29T13:22:40.952Z,1.68
2022-09-29T13:23:40.928Z,1.75
2022-09-29T13:24:43.708Z,1.84
2022-09-29T13:25:40.929Z,1.66
2022-09-29T13:26:40.937Z,1.58
2022-09-29T13:27:40.922Z,1.54
2022-09-29T13:28:40.934Z,1.59
2022-09-29T13:29:40.917Z,1.63
2022-09-29T13:30:40.972Z,1.67
2022-09-29T13:32:40.935Z,1.77
2022-09-29T13:33:40.937Z,1.74
2022-09-29T13:34:40.923Z,1.7
2022-09-29T13:35:40.927Z,1.69
2022-09-29T13:36:40.932Z,1.65
2022-09-29T13:37:40.931Z,1.65
2022-09-29T13:38:40.934Z,1.54
2022-09-29T13:39:40.944Z,1.49
2022-09-29T13:40:40.925Z,1.47
2022-09-29T13:41:41.118Z,1.45
2022-09-29T13:42:40.931Z,1.47
2022-09-29T13:43:40.935Z,1.47
2022-09-29T13:44:40.922Z,1.46
2022-09-29T13:45:40.988Z,1.49
2022-09-29T13:46:40.936Z,1.71
2022-09-29T13:47:40.977Z,1.59
2022-09-29T13:48:40.934Z,1.46
2022-09-29T13:49:41.089Z,1.44
2022-09-29T13:50:41.178Z,1.44
2022-09-29T13:51:40.941Z,1.44
2022-09-29T13:52:40.913Z,1.38
2022-09-29T13:53:40.921Z,1.47
2022-09-29T13:54:40.905Z,1.3
2022-09-29T13:55:41.214Z,1.45
2022-09-29T13:56:40.929Z,1.45
2022-09-29T13:57:40.914Z,1.32
2022-09-29T13:58:40.925Z,1.28
2022-09-29T13:59:40.926Z,1.22
2022-09-29T14:00:40.914Z,1.22
2022-09-29T14:01:40.953Z,1.12
2022-09-29T14:02:40.960Z,1.13